sensor_id;sensor_type;location;lat;lon;timestamp;P1;durP1;ratioP1;P2;durP2;ratioP2
3704;SDS011;1868;48.918;9.438;2022-09-25T00:01:27;15.57;;;12.17;;
3704;SDS011;1868;48.918;9.438;2022-09-25T00:03:57;15.43;;;13.30;;
3704;SDS011;1868;48.918;9.438;2022-09-25T00:06:25;14.30;;;12.77;;
3704;SDS011;1868;48.918;9.438;2022-09-25T00:08:55;15.60;;;13.33;;
3704;SDS011;1868;48.918;9.438;2022-09-25T00:11:25;21.23;;;16.80;;
3704;SDS011;1868;48.918;9.438;2022-09-25T00:13:56;15.30;;;12.60;;
3704;SDS011;1868;48.918;9.438;2022-09-25T00:16:27;15.20;;;13.60;;
3704;SDS011;1868;48.918;9.438;2022-09-25T00:18:59;15.40;;;13.37;;
3704;SDS011;1868;48.918;9.438;2022-09-25T00:21:45;19.07;;;13.50;;
3704;SDS011;1868;48.918;9.438;2022-09-25T00:24:18;26.13;;;15.30;;
3704;SDS011;1868;48.918;9.438;2022-09-25T00:26:47;15.53;;;13.50;;
3704;SDS011;1868;48.918;9.438;2022-09-25T00:29:16;15.70;;;13.33;;
3704;SDS011;1868;48.918;9.438;2022-09-25T00:31:46;13.93;;;12.50;;
3704;SDS011;1868;48.918;9.438;2022-09-25T00:34:16;14.87;;;12.73;;
3704;SDS011;1868;48.918;9.438;2022-09-25T00:36:44;16.60;;;14.90;;
3704;SDS011;1868;48.918;9.438;2022-09-25T00:39:12;16.13;;;13.57;;
3704;SDS011;1868;48.918;9.438;2022-09-25T00:41:40;15.57;;;13.93;;
3704;SDS011;1868;48.918;9.438;2022-09-25T00:47:24;18.33;;;15.83;;
3704;SDS011;1868;48.918;9.438;2022-09-25T00:50:17;18.77;;;16.40;;
3704;SDS011;1868;48.918;9.438;2022-09-25T00:52:54;15.40;;;13.33;;
3704;SDS011;1868;48.918;9.438;2022-09-25T00:55:29;14.20;;;12.80;;
3704;SDS011;1868;48.918;9.438;2022-09-25T00:57:59;18.10;;;16.33;;
3704;SDS011;1868;48.918;9.438;2022-09-25T01:00:30;17.90;;;14.00;;
3704;SDS011;1868;48.918;9.438;2022-09-25T01:03:00;14.70;;;13.17;;
3704;SDS011;1868;48.918;9.438;2022-09-25T01:05:33;14.30;;;12.80;;
3704;SDS011;1868;48.918;9.438;2022-09-25T01:08:04;16.90;;;15.20;;
3704;SDS011;1868;48.918;9.438;2022-09-25T01:10:35;16.87;;;14.80;;
3704;SDS011;1868;48.918;9.438;2022-09-25T01:13:03;16.60;;;14.90;;
3704;SDS011;1868;48.918;9.438;2022-09-25T01:15:35;13.90;;;12.60;;
3704;SDS011;1868;48.918;9.438;2022-09-25T01:18:13;20.17;;;16.70;;
3704;SDS011;1868;48.918;9.438;2022-09-25T01:20:59;15.73;;;14.03;;
3704;SDS011;1868;48.918;9.438;2022-09-25T01:23:44;16.87;;;15.07;;
3704;SDS011;1868;48.918;9.438;2022-09-25T01:26:55;14.60;;;13.23;;
3704;SDS011;1868;48.918;9.438;2022-09-25T01:29:47;15.90;;;14.10;;
3704;SDS011;1868;48.918;9.438;2022-09-25T01:32:21;15.00;;;13.30;;
3704;SDS011;1868;48.918;9.438;2022-09-25T01:34:57;13.33;;;11.93;;
3704;SDS011;1868;48.918;9.438;2022-09-25T01:37:30;13.20;;;11.83;;
3704;SDS011;1868;48.918;9.438;2022-09-25T01:40:05;12.77;;;11.37;;
3704;SDS011;1868;48.918;9.438;2022-09-25T01:42:42;16.77;;;13.50;;
3704;SDS011;1868;48.918;9.438;2022-09-25T01:45:17;13.17;;;11.87;;
3704;SDS011;1868;48.918;9.438;2022-09-25T01:47:50;17.13;;;12.97;;
3704;SDS011;1868;48.918;9.438;2022-09-25T01:50:21;15.47;;;13.80;;
3704;SDS011;1868;48.918;9.438;2022-09-25T01:52:58;17.40;;;14.13;;
3704;SDS011;1868;48.918;9.438;2022-09-25T01:55:32;17.57;;;14.60;;
3704;SDS011;1868;48.918;9.438;2022-09-25T01:58:07;14.83;;;13.43;;
3704;SDS011;1868;48.918;9.438;2022-09-25T02:00:42;15.30;;;13.60;;
3704;SDS011;1868;48.918;9.438;2022-09-25T02:03:16;13.90;;;12.40;;
3704;SDS011;1868;48.918;9.438;2022-09-25T02:05:51;14.00;;;12.37;;
3704;SDS011;1868;48.918;9.438;2022-09-25T02:08:24;14.13;;;12.67;;
3704;SDS011;1868;48.918;9.438;2022-09-25T02:10:56;15.43;;;12.43;;
3704;SDS011;1868;48.918;9.438;2022-09-25T02:13:28;14.60;;;13.10;;
3704;SDS011;1868;48.918;9.438;2022-09-25T02:16:06;14.10;;;12.70;;
3704;SDS011;1868;48.918;9.438;2022-09-25T02:18:38;13.80;;;12.40;;
3704;SDS011;1868;48.918;9.438;2022-09-25T02:21:26;16.37;;;14.67;;
3704;SDS011;1868;48.918;9.438;2022-09-25T02:24:08;19.33;;;16.47;;
3704;SDS011;1868;48.918;9.438;2022-09-25T02:26:43;22.87;;;18.07;;
3704;SDS011;1868;48.918;9.438;2022-09-25T02:29:12;15.50;;;13.40;;
3704;SDS011;1868;48.918;9.438;2022-09-25T02:31:43;17.23;;;14.70;;
3704;SDS011;1868;48.918;9.438;2022-09-25T02:34:15;16.40;;;14.17;;
3704;SDS011;1868;48.918;9.438;2022-09-25T02:36:44;18.43;;;16.43;;
3704;SDS011;1868;48.918;9.438;2022-09-25T02:39:12;18.73;;;16.03;;
3704;SDS011;1868;48.918;9.438;2022-09-25T02:41:48;16.10;;;14.40;;
3704;SDS011;1868;48.918;9.438;2022-09-25T02:44:31;15.47;;;13.90;;
3704;SDS011;1868;48.918;9.438;2022-09-25T02:47:17;17.07;;;15.27;;
3704;SDS011;1868;48.918;9.438;2022-09-25T02:49:53;14.80;;;13.20;;
3704;SDS011;1868;48.918;9.438;2022-09-25T02:52:32;14.87;;;13.43;;
3704;SDS011;1868;48.918;9.438;2022-09-25T02:55:11;17.47;;;15.70;;
3704;SDS011;1868;48.918;9.438;2022-09-25T02:57:48;17.63;;;15.77;;
3704;SDS011;1868;48.918;9.438;2022-09-25T03:00:21;16.97;;;15.23;;
3704;SDS011;1868;48.918;9.438;2022-09-25T03:02:52;16.17;;;14.47;;
3704;SDS011;1868;48.918;9.438;2022-09-25T03:05:24;16.47;;;14.63;;
3704;SDS011;1868;48.918;9.438;2022-09-25T03:07:53;15.37;;;13.77;;
3704;SDS011;1868;48.918;9.438;2022-09-25T03:10:39;16.20;;;14.60;;
3704;SDS011;1868;48.918;9.438;2022-09-25T03:13:12;15.10;;;13.57;;
3704;SDS011;1868;48.918;9.438;2022-09-25T03:15:45;20.13;;;13.80;;
3704;SDS011;1868;48.918;9.438;2022-09-25T03:18:19;14.10;;;12.70;;
3704;SDS011;1868;48.918;9.438;2022-09-25T03:20:48;18.10;;;14.33;;
3704;SDS011;1868;48.918;9.438;2022-09-25T03:23:16;16.90;;;14.80;;
3704;SDS011;1868;48.918;9.438;2022-09-25T03:25:44;16.10;;;13.97;;
3704;SDS011;1868;48.918;9.438;2022-09-25T03:28:16;15.30;;;13.73;;
3704;SDS011;1868;48.918;9.438;2022-09-25T03:30:53;17.07;;;15.37;;
3704;SDS011;1868;48.918;9.438;2022-09-25T03:33:25;17.67;;;14.93;;
3704;SDS011;1868;48.918;9.438;2022-09-25T03:36:00;21.90;;;19.23;;
3704;SDS011;1868;48.918;9.438;2022-09-25T03:38:31;23.20;;;19.37;;
3704;SDS011;1868;48.918;9.438;2022-09-25T03:41:00;18.97;;;16.97;;
3704;SDS011;1868;48.918;9.438;2022-09-25T03:43:28;18.03;;;16.13;;
3704;SDS011;1868;48.918;9.438;2022-09-25T03:45:57;17.93;;;14.60;;
3704;SDS011;1868;48.918;9.438;2022-09-25T03:48:27;15.53;;;13.93;;
3704;SDS011;1868;48.918;9.438;2022-09-25T03:50:55;19.03;;;17.07;;
3704;SDS011;1868;48.918;9.438;2022-09-25T03:53:24;19.10;;;17.10;;
3704;SDS011;1868;48.918;9.438;2022-09-25T03:55:52;17.57;;;15.63;;
3704;SDS011;1868;48.918;9.438;2022-09-25T03:58:20;17.00;;;14.93;;
3704;SDS011;1868;48.918;9.438;2022-09-25T04:00:49;25.33;;;21.20;;
3704;SDS011;1868;48.918;9.438;2022-09-25T04:03:17;25.77;;;20.20;;
3704;SDS011;1868;48.918;9.438;2022-09-25T04:05:48;22.17;;;18.30;;
3704;SDS011;1868;48.918;9.438;2022-09-25T04:08:17;21.77;;;19.30;;
3704;SDS011;1868;48.918;9.438;2022-09-25T04:10:45;25.73;;;19.00;;
3704;SDS011;1868;48.918;9.438;2022-09-25T04:13:13;20.90;;;17.73;;
3704;SDS011;1868;48.918;9.438;2022-09-25T04:15:43;20.60;;;18.40;;
3704;SDS011;1868;48.918;9.438;2022-09-25T04:18:11;19.40;;;16.70;;
3704;SDS011;1868;48.918;9.438;2022-09-25T04:20:39;20.60;;;17.73;;
3704;SDS011;1868;48.918;9.438;2022-09-25T04:23:09;20.83;;;16.77;;
3704;SDS011;1868;48.918;9.438;2022-09-25T04:25:37;18.80;;;16.73;;
3704;SDS011;1868;48.918;9.438;2022-09-25T04:28:05;19.20;;;17.00;;
3704;SDS011;1868;48.918;9.438;2022-09-25T04:30:35;25.00;;;19.20;;
3704;SDS011;1868;48.918;9.438;2022-09-25T04:33:03;20.00;;;17.87;;
3704;SDS011;1868;48.918;9.438;2022-09-25T04:35:49;20.50;;;16.50;;
3704;SDS011;1868;48.918;9.438;2022-09-25T04:38:18;19.20;;;17.00;;
3704;SDS011;1868;48.918;9.438;2022-09-25T04:40:47;20.87;;;17.77;;
3704;SDS011;1868;48.918;9.438;2022-09-25T04:43:15;18.33;;;16.13;;
3704;SDS011;1868;48.918;9.438;2022-09-25T04:45:43;24.50;;;17.30;;
3704;SDS011;1868;48.918;9.438;2022-09-25T04:48:13;20.20;;;17.57;;
3704;SDS011;1868;48.918;9.438;2022-09-25T04:50:45;17.87;;;15.87;;
3704;SDS011;1868;48.918;9.438;2022-09-25T04:53:16;19.50;;;16.77;;
3704;SDS011;1868;48.918;9.438;2022-09-25T04:55:46;19.20;;;17.20;;
3704;SDS011;1868;48.918;9.438;2022-09-25T04:58:14;26.67;;;18.17;;
3704;SDS011;1868;48.918;9.438;2022-09-25T05:00:42;21.30;;;17.50;;
3704;SDS011;1868;48.918;9.438;2022-09-25T05:03:10;18.37;;;16.47;;
3704;SDS011;1868;48.918;9.438;2022-09-25T05:05:39;19.17;;;16.70;;
3704;SDS011;1868;48.918;9.438;2022-09-25T05:08:08;19.60;;;17.50;;
3704;SDS011;1868;48.918;9.438;2022-09-25T05:10:38;20.07;;;17.53;;
3704;SDS011;1868;48.918;9.438;2022-09-25T05:13:08;21.50;;;16.77;;
3704;SDS011;1868;48.918;9.438;2022-09-25T05:15:37;16.77;;;15.03;;
3704;SDS011;1868;48.918;9.438;2022-09-25T05:18:06;17.10;;;15.27;;
3704;SDS011;1868;48.918;9.438;2022-09-25T05:20:42;18.80;;;15.83;;
3704;SDS011;1868;48.918;9.438;2022-09-25T05:23:10;16.30;;;14.37;;
3704;SDS011;1868;48.918;9.438;2022-09-25T05:25:40;22.17;;;17.97;;
3704;SDS011;1868;48.918;9.438;2022-09-25T05:28:09;18.87;;;16.50;;
3704;SDS011;1868;48.918;9.438;2022-09-25T05:30:37;62.10;;;51.67;;
3704;SDS011;1868;48.918;9.438;2022-09-25T05:33:05;32.70;;;28.07;;
3704;SDS011;1868;48.918;9.438;2022-09-25T05:35:34;20.10;;;16.80;;
3704;SDS011;1868;48.918;9.438;2022-09-25T05:38:02;17.77;;;15.97;;
3704;SDS011;1868;48.918;9.438;2022-09-25T05:40:31;26.00;;;18.30;;
3704;SDS011;1868;48.918;9.438;2022-09-25T05:43:02;21.77;;;17.80;;
3704;SDS011;1868;48.918;9.438;2022-09-25T05:45:30;20.70;;;17.87;;
3704;SDS011;1868;48.918;9.438;2022-09-25T05:48:00;23.87;;;19.63;;
3704;SDS011;1868;48.918;9.438;2022-09-25T05:50:29;27.60;;;19.07;;
3704;SDS011;1868;48.918;9.438;2022-09-25T05:52:58;18.43;;;16.43;;
3704;SDS011;1868;48.918;9.438;2022-09-25T05:55:29;23.03;;;19.93;;
3704;SDS011;1868;48.918;9.438;2022-09-25T05:58:03;22.73;;;18.87;;
3704;SDS011;1868;48.918;9.438;2022-09-25T06:00:31;23.30;;;20.00;;
3704;SDS011;1868;48.918;9.438;2022-09-25T06:03:00;26.50;;;19.83;;
3704;SDS011;1868;48.918;9.438;2022-09-25T06:05:28;36.20;;;26.30;;
3704;SDS011;1868;48.918;9.438;2022-09-25T06:07:56;31.30;;;25.80;;
3704;SDS011;1868;48.918;9.438;2022-09-25T06:10:24;24.80;;;19.57;;
3704;SDS011;1868;48.918;9.438;2022-09-25T06:12:55;29.67;;;24.23;;
3704;SDS011;1868;48.918;9.438;2022-09-25T06:15:26;22.77;;;18.07;;
3704;SDS011;1868;48.918;9.438;2022-09-25T06:17:56;22.03;;;17.87;;
3704;SDS011;1868;48.918;9.438;2022-09-25T06:20:24;25.43;;;20.27;;
3704;SDS011;1868;48.918;9.438;2022-09-25T06:22:52;26.77;;;21.53;;
3704;SDS011;1868;48.918;9.438;2022-09-25T06:25:21;26.73;;;23.37;;
3704;SDS011;1868;48.918;9.438;2022-09-25T06:27:51;22.93;;;18.73;;
3704;SDS011;1868;48.918;9.438;2022-09-25T06:30:20;20.73;;;17.00;;
3704;SDS011;1868;48.918;9.438;2022-09-25T06:32:56;21.77;;;18.27;;
3704;SDS011;1868;48.918;9.438;2022-09-25T06:35:25;23.30;;;18.87;;
3704;SDS011;1868;48.918;9.438;2022-09-25T06:37:55;22.00;;;18.47;;
3704;SDS011;1868;48.918;9.438;2022-09-25T06:40:25;18.57;;;16.20;;
3704;SDS011;1868;48.918;9.438;2022-09-25T06:42:54;19.80;;;16.60;;
3704;SDS011;1868;48.918;9.438;2022-09-25T06:45:23;20.77;;;16.50;;
3704;SDS011;1868;48.918;9.438;2022-09-25T06:47:52;19.93;;;16.53;;
3704;SDS011;1868;48.918;9.438;2022-09-25T06:50:30;19.17;;;15.27;;
3704;SDS011;1868;48.918;9.438;2022-09-25T06:53:04;19.57;;;16.70;;
3704;SDS011;1868;48.918;9.438;2022-09-25T06:55:33;18.60;;;15.60;;
3704;SDS011;1868;48.918;9.438;2022-09-25T06:58:02;16.87;;;14.77;;
3704;SDS011;1868;48.918;9.438;2022-09-25T07:00:31;16.10;;;14.40;;
3704;SDS011;1868;48.918;9.438;2022-09-25T07:03:01;18.93;;;14.17;;
3704;SDS011;1868;48.918;9.438;2022-09-25T07:05:47;20.17;;;16.30;;
3704;SDS011;1868;48.918;9.438;2022-09-25T07:08:16;18.37;;;15.63;;
3704;SDS011;1868;48.918;9.438;2022-09-25T07:10:46;22.60;;;18.33;;
3704;SDS011;1868;48.918;9.438;2022-09-25T07:13:15;22.30;;;18.37;;
3704;SDS011;1868;48.918;9.438;2022-09-25T07:15:49;19.90;;;15.80;;
3704;SDS011;1868;48.918;9.438;2022-09-25T07:18:19;22.30;;;18.20;;
3704;SDS011;1868;48.918;9.438;2022-09-25T07:20:48;19.10;;;16.17;;
3704;SDS011;1868;48.918;9.438;2022-09-25T07:23:17;20.83;;;18.33;;
3704;SDS011;1868;48.918;9.438;2022-09-25T07:25:48;20.63;;;16.30;;
3704;SDS011;1868;48.918;9.438;2022-09-25T07:28:16;18.40;;;16.37;;
3704;SDS011;1868;48.918;9.438;2022-09-25T07:30:45;17.43;;;15.30;;
3704;SDS011;1868;48.918;9.438;2022-09-25T07:33:14;17.73;;;14.03;;
3704;SDS011;1868;48.918;9.438;2022-09-25T07:35:44;19.40;;;16.00;;
3704;SDS011;1868;48.918;9.438;2022-09-25T07:38:12;17.47;;;15.33;;
3704;SDS011;1868;48.918;9.438;2022-09-25T07:40:40;24.00;;;14.10;;
3704;SDS011;1868;48.918;9.438;2022-09-25T07:43:08;17.03;;;14.63;;
3704;SDS011;1868;48.918;9.438;2022-09-25T07:45:36;15.90;;;14.07;;
3704;SDS011;1868;48.918;9.438;2022-09-25T07:48:05;17.70;;;14.30;;
3704;SDS011;1868;48.918;9.438;2022-09-25T07:50:33;18.47;;;14.17;;
3704;SDS011;1868;48.918;9.438;2022-09-25T07:53:02;14.30;;;12.87;;
3704;SDS011;1868;48.918;9.438;2022-09-25T07:55:30;15.60;;;14.00;;
3704;SDS011;1868;48.918;9.438;2022-09-25T07:57:58;16.83;;;13.33;;
3704;SDS011;1868;48.918;9.438;2022-09-25T08:00:27;14.67;;;12.70;;
3704;SDS011;1868;48.918;9.438;2022-09-25T08:02:55;18.00;;;11.47;;
3704;SDS011;1868;48.918;9.438;2022-09-25T08:05:24;17.90;;;13.10;;
3704;SDS011;1868;48.918;9.438;2022-09-25T08:07:53;12.23;;;10.93;;
3704;SDS011;1868;48.918;9.438;2022-09-25T08:10:23;16.60;;;12.40;;
3704;SDS011;1868;48.918;9.438;2022-09-25T08:12:51;32.97;;;24.40;;
3704;SDS011;1868;48.918;9.438;2022-09-25T08:15:19;18.17;;;15.10;;
3704;SDS011;1868;48.918;9.438;2022-09-25T08:17:47;15.33;;;11.37;;
3704;SDS011;1868;48.918;9.438;2022-09-25T08:20:16;14.07;;;12.47;;
3704;SDS011;1868;48.918;9.438;2022-09-25T08:22:44;15.87;;;14.17;;
3704;SDS011;1868;48.918;9.438;2022-09-25T08:25:12;12.53;;;11.23;;
3704;SDS011;1868;48.918;9.438;2022-09-25T08:27:42;12.60;;;10.37;;
3704;SDS011;1868;48.918;9.438;2022-09-25T08:30:10;11.30;;;9.97;;
3704;SDS011;1868;48.918;9.438;2022-09-25T08:32:41;12.03;;;8.63;;
3704;SDS011;1868;48.918;9.438;2022-09-25T08:35:09;11.37;;;9.50;;
3704;SDS011;1868;48.918;9.438;2022-09-25T08:37:40;11.83;;;10.63;;
3704;SDS011;1868;48.918;9.438;2022-09-25T08:40:14;13.27;;;9.70;;
3704;SDS011;1868;48.918;9.438;2022-09-25T08:42:47;15.33;;;10.27;;
3704;SDS011;1868;48.918;9.438;2022-09-25T08:45:22;15.63;;;13.60;;
3704;SDS011;1868;48.918;9.438;2022-09-25T08:48:14;18.00;;;16.10;;
3704;SDS011;1868;48.918;9.438;2022-09-25T08:51:06;11.43;;;9.97;;
3704;SDS011;1868;48.918;9.438;2022-09-25T08:53:34;11.77;;;10.57;;
3704;SDS011;1868;48.918;9.438;2022-09-25T08:56:04;12.10;;;10.90;;
3704;SDS011;1868;48.918;9.438;2022-09-25T08:58:46;15.23;;;10.73;;
3704;SDS011;1868;48.918;9.438;2022-09-25T09:01:20;14.70;;;11.10;;
3704;SDS011;1868;48.918;9.438;2022-09-25T09:03:53;12.80;;;9.33;;
3704;SDS011;1868;48.918;9.438;2022-09-25T09:06:30;11.53;;;10.33;;
3704;SDS011;1868;48.918;9.438;2022-09-25T09:09:01;12.87;;;11.10;;
3704;SDS011;1868;48.918;9.438;2022-09-25T09:11:35;13.40;;;12.00;;
3704;SDS011;1868;48.918;9.438;2022-09-25T09:14:09;14.00;;;12.60;;
3704;SDS011;1868;48.918;9.438;2022-09-25T09:16:42;13.87;;;11.60;;
3704;SDS011;1868;48.918;9.438;2022-09-25T09:19:17;13.20;;;11.87;;
3704;SDS011;1868;48.918;9.438;2022-09-25T09:21:48;14.20;;;12.13;;
3704;SDS011;1868;48.918;9.438;2022-09-25T09:24:24;12.53;;;11.23;;
3704;SDS011;1868;48.918;9.438;2022-09-25T09:27:04;12.83;;;11.23;;
3704;SDS011;1868;48.918;9.438;2022-09-25T09:29:55;12.50;;;11.07;;
3704;SDS011;1868;48.918;9.438;2022-09-25T09:32:48;15.03;;;11.33;;
3704;SDS011;1868;48.918;9.438;2022-09-25T09:35:42;12.27;;;11.07;;
3704;SDS011;1868;48.918;9.438;2022-09-25T09:38:19;13.87;;;12.40;;
3704;SDS011;1868;48.918;9.438;2022-09-25T09:41:10;13.67;;;12.13;;
3704;SDS011;1868;48.918;9.438;2022-09-25T09:43:53;14.47;;;11.47;;
3704;SDS011;1868;48.918;9.438;2022-09-25T09:46:42;12.10;;;10.50;;
3704;SDS011;1868;48.918;9.438;2022-09-25T09:49:18;16.10;;;13.13;;
3704;SDS011;1868;48.918;9.438;2022-09-25T09:51:56;12.83;;;10.90;;
3704;SDS011;1868;48.918;9.438;2022-09-25T09:54:32;13.83;;;10.70;;
3704;SDS011;1868;48.918;9.438;2022-09-25T09:57:10;14.93;;;13.20;;
3704;SDS011;1868;48.918;9.438;2022-09-25T09:59:44;16.53;;;11.77;;
3704;SDS011;1868;48.918;9.438;2022-09-25T10:02:26;15.23;;;12.17;;
3704;SDS011;1868;48.918;9.438;2022-09-25T10:05:00;12.67;;;11.47;;
3704;SDS011;1868;48.918;9.438;2022-09-25T10:07:35;20.57;;;13.00;;
3704;SDS011;1868;48.918;9.438;2022-09-25T10:10:08;14.70;;;10.90;;
3704;SDS011;1868;48.918;9.438;2022-09-25T10:12:41;15.50;;;12.33;;
3704;SDS011;1868;48.918;9.438;2022-09-25T10:15:14;13.30;;;11.53;;
3704;SDS011;1868;48.918;9.438;2022-09-25T10:17:53;13.30;;;11.90;;
3704;SDS011;1868;48.918;9.438;2022-09-25T10:20:35;18.80;;;10.27;;
3704;SDS011;1868;48.918;9.438;2022-09-25T10:23:14;12.60;;;11.30;;
3704;SDS011;1868;48.918;9.438;2022-09-25T10:25:57;15.20;;;12.57;;
3704;SDS011;1868;48.918;9.438;2022-09-25T10:28:27;13.53;;;12.13;;
3704;SDS011;1868;48.918;9.438;2022-09-25T10:30:59;12.13;;;10.87;;
3704;SDS011;1868;48.918;9.438;2022-09-25T10:33:30;12.20;;;10.87;;
3704;SDS011;1868;48.918;9.438;2022-09-25T10:35:59;13.17;;;11.80;;
3704;SDS011;1868;48.918;9.438;2022-09-25T10:38:32;15.20;;;11.33;;
3704;SDS011;1868;48.918;9.438;2022-09-25T10:41:05;13.73;;;11.87;;
3704;SDS011;1868;48.918;9.438;2022-09-25T10:43:48;14.87;;;12.00;;
3704;SDS011;1868;48.918;9.438;2022-09-25T10:46:26;13.13;;;11.13;;
3704;SDS011;1868;48.918;9.438;2022-09-25T10:49:17;11.87;;;10.57;;
3704;SDS011;1868;48.918;9.438;2022-09-25T10:52:05;16.83;;;12.83;;
3704;SDS011;1868;48.918;9.438;2022-09-25T10:54:35;19.17;;;13.83;;
3704;SDS011;1868;48.918;9.438;2022-09-25T10:57:14;16.30;;;11.70;;
3704;SDS011;1868;48.918;9.438;2022-09-25T10:59:50;15.47;;;12.37;;
3704;SDS011;1868;48.918;9.438;2022-09-25T11:02:23;13.20;;;11.80;;
3704;SDS011;1868;48.918;9.438;2022-09-25T11:05:02;12.60;;;11.30;;
3704;SDS011;1868;48.918;9.438;2022-09-25T11:07:33;13.80;;;11.50;;
3704;SDS011;1868;48.918;9.438;2022-09-25T11:10:01;13.70;;;12.40;;
3704;SDS011;1868;48.918;9.438;2022-09-25T11:12:30;13.83;;;12.43;;
3704;SDS011;1868;48.918;9.438;2022-09-25T11:14:59;13.70;;;11.90;;
3704;SDS011;1868;48.918;9.438;2022-09-25T11:17:32;12.60;;;10.90;;
3704;SDS011;1868;48.918;9.438;2022-09-25T11:20:18;14.93;;;11.80;;
3704;SDS011;1868;48.918;9.438;2022-09-25T11:23:08;16.50;;;12.93;;
3704;SDS011;1868;48.918;9.438;2022-09-25T11:25:54;14.77;;;12.20;;
3704;SDS011;1868;48.918;9.438;2022-09-25T11:28:33;15.20;;;9.93;;
3704;SDS011;1868;48.918;9.438;2022-09-25T11:31:10;13.07;;;10.77;;
3704;SDS011;1868;48.918;9.438;2022-09-25T11:33:44;11.77;;;10.60;;
3704;SDS011;1868;48.918;9.438;2022-09-25T11:36:21;13.50;;;10.10;;
3704;SDS011;1868;48.918;9.438;2022-09-25T11:38:55;13.80;;;11.30;;
3704;SDS011;1868;48.918;9.438;2022-09-25T11:41:47;13.20;;;10.57;;
3704;SDS011;1868;48.918;9.438;2022-09-25T11:44:24;17.53;;;11.10;;
3704;SDS011;1868;48.918;9.438;2022-09-25T11:46:58;10.23;;;9.23;;
3704;SDS011;1868;48.918;9.438;2022-09-25T11:49:36;13.60;;;11.90;;
3704;SDS011;1868;48.918;9.438;2022-09-25T11:58:15;15.67;;;12.43;;
3704;SDS011;1868;48.918;9.438;2022-09-25T12:00:57;14.00;;;10.40;;
3704;SDS011;1868;48.918;9.438;2022-09-25T12:03:40;12.33;;;10.93;;
3704;SDS011;1868;48.918;9.438;2022-09-25T12:09:55;12.23;;;11.00;;
3704;SDS011;1868;48.918;9.438;2022-09-25T12:12:39;13.47;;;11.60;;
3704;SDS011;1868;48.918;9.438;2022-09-25T12:15:19;12.97;;;11.67;;
3704;SDS011;1868;48.918;9.438;2022-09-25T12:17:56;13.17;;;10.53;;
3704;SDS011;1868;48.918;9.438;2022-09-25T12:20:36;11.53;;;10.33;;
3704;SDS011;1868;48.918;9.438;2022-09-25T12:23:14;11.27;;;10.07;;
3704;SDS011;1868;48.918;9.438;2022-09-25T12:25:56;12.13;;;10.83;;
3704;SDS011;1868;48.918;9.438;2022-09-25T12:28:43;11.53;;;10.30;;
3704;SDS011;1868;48.918;9.438;2022-09-25T12:31:40;12.90;;;11.50;;
3704;SDS011;1868;48.918;9.438;2022-09-25T12:34:24;13.10;;;11.83;;
3704;SDS011;1868;48.918;9.438;2022-09-25T12:37:07;12.67;;;11.37;;
3704;SDS011;1868;48.918;9.438;2022-09-25T12:39:54;12.50;;;11.30;;
3704;SDS011;1868;48.918;9.438;2022-09-25T12:42:31;13.37;;;11.40;;
3704;SDS011;1868;48.918;9.438;2022-09-25T12:45:10;9.80;;;8.77;;
3704;SDS011;1868;48.918;9.438;2022-09-25T12:47:44;6.53;;;5.90;;
3704;SDS011;1868;48.918;9.438;2022-09-25T12:50:30;6.70;;;5.87;;
3704;SDS011;1868;48.918;9.438;2022-09-25T12:53:04;10.00;;;5.23;;
3704;SDS011;1868;48.918;9.438;2022-09-25T12:55:49;6.10;;;5.50;;
3704;SDS011;1868;48.918;9.438;2022-09-25T12:58:27;7.30;;;6.57;;
3704;SDS011;1868;48.918;9.438;2022-09-25T13:01:11;6.50;;;5.90;;
3704;SDS011;1868;48.918;9.438;2022-09-25T13:03:49;7.20;;;6.60;;
3704;SDS011;1868;48.918;9.438;2022-09-25T13:06:32;7.07;;;6.47;;
3704;SDS011;1868;48.918;9.438;2022-09-25T13:09:11;6.40;;;4.90;;
3704;SDS011;1868;48.918;9.438;2022-09-25T13:11:49;7.40;;;6.20;;
3704;SDS011;1868;48.918;9.438;2022-09-25T13:14:28;6.73;;;6.00;;
3704;SDS011;1868;48.918;9.438;2022-09-25T13:17:01;7.23;;;5.77;;
3704;SDS011;1868;48.918;9.438;2022-09-25T13:19:30;6.90;;;6.30;;
3704;SDS011;1868;48.918;9.438;2022-09-25T13:22:01;7.00;;;6.30;;
3704;SDS011;1868;48.918;9.438;2022-09-25T13:24:36;6.97;;;6.17;;
3704;SDS011;1868;48.918;9.438;2022-09-25T13:27:13;5.27;;;4.87;;
3704;SDS011;1868;48.918;9.438;2022-09-25T13:29:56;4.77;;;3.30;;
3704;SDS011;1868;48.918;9.438;2022-09-25T13:32:46;9.97;;;3.70;;
3704;SDS011;1868;48.918;9.438;2022-09-25T13:35:17;5.97;;;3.37;;
3704;SDS011;1868;48.918;9.438;2022-09-25T13:37:47;2.60;;;2.37;;
3704;SDS011;1868;48.918;9.438;2022-09-25T13:40:19;3.27;;;3.00;;
3704;SDS011;1868;48.918;9.438;2022-09-25T13:43:17;4.53;;;3.33;;
3704;SDS011;1868;48.918;9.438;2022-09-25T13:48:53;2.23;;;2.13;;
3704;SDS011;1868;48.918;9.438;2022-09-25T13:51:59;3.63;;;2.90;;
3704;SDS011;1868;48.918;9.438;2022-09-25T13:54:27;3.40;;;3.10;;
3704;SDS011;1868;48.918;9.438;2022-09-25T13:56:57;4.80;;;2.50;;
3704;SDS011;1868;48.918;9.438;2022-09-25T13:59:35;2.10;;;2.00;;
3704;SDS011;1868;48.918;9.438;2022-09-25T14:02:37;3.00;;;2.23;;
3704;SDS011;1868;48.918;9.438;2022-09-25T14:05:12;2.47;;;2.23;;
3704;SDS011;1868;48.918;9.438;2022-09-25T14:07:44;3.03;;;1.83;;
3704;SDS011;1868;48.918;9.438;2022-09-25T14:10:16;2.73;;;2.53;;
3704;SDS011;1868;48.918;9.438;2022-09-25T14:12:46;2.50;;;2.30;;
3704;SDS011;1868;48.918;9.438;2022-09-25T14:15:20;3.97;;;3.27;;
3704;SDS011;1868;48.918;9.438;2022-09-25T14:17:55;2.40;;;2.13;;
3704;SDS011;1868;48.918;9.438;2022-09-25T14:20:28;2.60;;;2.40;;
3704;SDS011;1868;48.918;9.438;2022-09-25T14:23:03;2.37;;;2.17;;
3704;SDS011;1868;48.918;9.438;2022-09-25T14:25:38;2.40;;;2.30;;
3704;SDS011;1868;48.918;9.438;2022-09-25T14:28:14;2.03;;;1.93;;
3704;SDS011;1868;48.918;9.438;2022-09-25T14:30:52;2.10;;;2.00;;
3704;SDS011;1868;48.918;9.438;2022-09-25T14:33:48;2.67;;;2.57;;
3704;SDS011;1868;48.918;9.438;2022-09-25T14:36:54;2.70;;;2.50;;
3704;SDS011;1868;48.918;9.438;2022-09-25T14:39:36;3.23;;;3.03;;
3704;SDS011;1868;48.918;9.438;2022-09-25T14:48:18;2.83;;;2.73;;
3704;SDS011;1868;48.918;9.438;2022-09-25T14:50:54;3.43;;;3.10;;
3704;SDS011;1868;48.918;9.438;2022-09-25T14:53:27;3.30;;;3.10;;
3704;SDS011;1868;48.918;9.438;2022-09-25T14:55:58;3.63;;;3.43;;
3704;SDS011;1868;48.918;9.438;2022-09-25T14:58:29;3.33;;;3.13;;
3704;SDS011;1868;48.918;9.438;2022-09-25T15:01:02;4.77;;;4.37;;
3704;SDS011;1868;48.918;9.438;2022-09-25T15:03:41;4.03;;;3.73;;
3704;SDS011;1868;48.918;9.438;2022-09-25T15:06:23;3.17;;;2.97;;
3704;SDS011;1868;48.918;9.438;2022-09-25T15:08:53;3.83;;;3.53;;
3704;SDS011;1868;48.918;9.438;2022-09-25T15:11:22;3.97;;;3.67;;
3704;SDS011;1868;48.918;9.438;2022-09-25T15:14:07;4.30;;;3.90;;
3704;SDS011;1868;48.918;9.438;2022-09-25T15:16:37;4.40;;;4.10;;
3704;SDS011;1868;48.918;9.438;2022-09-25T15:19:23;5.10;;;4.70;;
3704;SDS011;1868;48.918;9.438;2022-09-25T15:21:57;4.30;;;3.93;;
3704;SDS011;1868;48.918;9.438;2022-09-25T15:24:27;4.27;;;3.87;;
3704;SDS011;1868;48.918;9.438;2022-09-25T15:26:58;4.13;;;3.80;;
3704;SDS011;1868;48.918;9.438;2022-09-25T15:29:31;4.03;;;3.73;;
3704;SDS011;1868;48.918;9.438;2022-09-25T15:32:03;3.47;;;3.27;;
3704;SDS011;1868;48.918;9.438;2022-09-25T15:34:32;3.80;;;3.50;;
3704;SDS011;1868;48.918;9.438;2022-09-25T15:37:12;4.47;;;4.17;;
3704;SDS011;1868;48.918;9.438;2022-09-25T15:39:46;4.87;;;4.37;;
3704;SDS011;1868;48.918;9.438;2022-09-25T15:42:14;4.70;;;4.30;;
3704;SDS011;1868;48.918;9.438;2022-09-25T15:44:42;8.33;;;6.70;;
3704;SDS011;1868;48.918;9.438;2022-09-25T15:50:20;7.20;;;5.00;;
3704;SDS011;1868;48.918;9.438;2022-09-25T15:52:53;6.40;;;5.80;;
3704;SDS011;1868;48.918;9.438;2022-09-25T15:55:24;5.53;;;5.07;;
3704;SDS011;1868;48.918;9.438;2022-09-25T15:57:52;4.93;;;4.43;;
3704;SDS011;1868;48.918;9.438;2022-09-25T16:00:23;4.43;;;4.03;;